San Jose, Costa Rica

11:49 PM CST on September 29, 2016 (GMT -0600)
Calle 9 Anastasio Alfaro | | Change Station

Elev 3192 ft 10.02 °N, 84.21 °W | Updated 1 minute ago

Clear
Clear
75.9 °F
Feels Like 77 °F
N
0.6
Wind Variable Wind from NNE
Gusts 2.5 mph

Today
High -- | Low -- °F
--% Chance of Precip.
Yesterday
High -- | Low -- °F
Precip. -- in
Pressure 30.08 in
Visibility -9999.0 miles
Clouds
Heat Index 77 °F
Dew Point 67 °F
Humidity 74%
Rainfall in
Snow Depth Not available.
5:25 AM 5:28 PM
Waning Crescent, 1% visible
METAR MROC 300500Z 09005KT CAVOK 22/17 A3008 NOSIG
Pressure 30.08 in
Visibility -9999.0 miles
Clouds
Heat Index 77 °F
Dew Point 67 °F
Humidity 74%
Rainfall in
Snow Depth Not available.
5:25 AM 5:28 PM
Waning Crescent, 1% visible
METAR MROC 300500Z 09005KT CAVOK 22/17 A3008 NOSIG

10-Day Weather Forecast

No radar image for this location.
×

Almanac

Astronomy

Sep. 29, 2016 Rise Set
Actual Time
Civil Twilight
Nautical Twilight
Astronomical Twilight
Moon
Length of Visible Light
Length of Day
Tomorrow will be .
, % of the Moon is Illuminated

Today's Extremes

Country Highs Country Lows

Community

WunderPhotos

Upload Photos

1,942,669 photos uploaded!

WunderBlog® & News

Nearby

Air Quality

  Air Quality AQ Index Pollutant
Not available.

Snow Depth

Station Depth Elevation

Earthquake Activity

City Distance Mag. Time & Date
Minimum magnitude displayed is 2.5.

Coastal Water Temperatures

Place Temperature

Stations

Nearby Weather Stations

Station Location Temp. Windchill Dew Point Humidity Wind Precip. Elev Updated Type